Time;durP1;ratioP1;P1;durP2;ratioP2;P2;SDS_P1;SDS_P2;PMS_P1;PMS_P2;Temp;Humidity;BMP_temperature;BMP_pressure;BME280_temperature;BME280_humidity;BME280_pressure;Samples;Min_cycle;Max_cycle;Signal;HPM_P1;HPM_P2
2024/02/02 02:00:56;;;;;;;5.30;3.23;;;6.30;99.90;;;;;;5015047;28;20480;-71
2024/02/02 02:03:23;;;;;;;6.57;3.13;;;6.40;99.90;;;;;;5012089;28;20458;-71
2024/02/02 02:05:50;;;;;;;10.97;3.40;;;6.30;99.90;;;;;;5011756;28;20484;-71
2024/02/02 02:08:18;;;;;;;9.90;4.33;;;6.30;99.90;;;;;;5017235;28;20479;-71
2024/02/02 02:10:46;;;;;;;8.03;3.40;;;6.30;99.90;;;;;;5017125;28;20454;-71
2024/02/02 02:13:13;;;;;;;13.83;3.93;;;6.20;99.90;;;;;;5015909;28;20458;-71
2024/02/02 02:15:40;;;;;;;14.23;4.67;;;6.30;99.90;;;;;;5017431;28;20492;-72
2024/02/02 02:18:08;;;;;;;7.60;3.73;;;6.30;99.90;;;;;;5013214;28;20435;-71
2024/02/02 02:20:40;;;;;;;5.77;3.30;;;6.40;99.90;;;;;;5021477;28;21272;-71
2024/02/02 02:23:10;;;;;;;5.20;3.77;;;6.40;99.90;;;;;;5019083;28;20481;-71
2024/02/02 02:25:37;;;;;;;6.50;4.50;;;6.40;99.90;;;;;;5012572;28;20494;-71
2024/02/02 02:28:04;;;;;;;8.53;4.77;;;6.50;99.90;;;;;;5018926;28;20468;-71
2024/02/02 02:30:31;;;;;;;3.90;3.20;;;6.50;99.90;;;;;;5018944;28;21212;-71
2024/02/02 02:32:58;;;;;;;23.97;3.43;;;6.50;99.90;;;;;;5014644;28;20457;-71
2024/02/02 02:35:26;;;;;;;9.60;4.20;;;6.50;99.90;;;;;;5014926;28;20487;-71
2024/02/02 02:37:53;;;;;;;7.30;3.37;;;6.50;99.90;;;;;;5008865;28;20464;-71
2024/02/02 02:40:21;;;;;;;5.57;3.80;;;6.50;99.90;;;;;;5017587;28;20430;-71
2024/02/02 02:42:49;;;;;;;8.40;4.40;;;6.50;99.90;;;;;;4992881;28;20477;-71
2024/02/02 02:45:16;;;;;;;9.87;4.50;;;6.70;99.90;;;;;;5005567;28;20608;-71
2024/02/02 02:47:48;;;;;;;5.40;3.63;;;6.70;99.90;;;;;;5002881;28;20849;-71
2024/02/02 02:50:18;;;;;;;8.83;3.67;;;6.70;99.90;;;;;;4999881;28;20449;-72
2024/02/02 02:52:47;;;;;;;8.87;4.60;;;6.70;99.90;;;;;;5002179;28;20941;-71
2024/02/02 02:55:14;;;;;;;6.87;3.90;;;6.70;99.90;;;;;;5008885;28;20454;-71
2024/02/02 02:57:42;;;;;;;4.87;2.90;;;6.60;99.90;;;;;;5004928;28;20535;-71
2024/02/02 03:00:10;;;;;;;5.40;4.37;;;6.60;99.90;;;;;;5003764;28;20476;-71
2024/02/02 03:02:40;;;;;;;10.27;3.37;;;6.70;99.90;;;;;;5000894;28;20487;-71
2024/02/02 03:05:08;;;;;;;2.90;1.97;;;6.60;99.90;;;;;;5000995;28;20502;-71
2024/02/02 03:07:37;;;;;;;1.67;1.57;;;6.60;99.90;;;;;;5002831;28;20465;-71
2024/02/02 03:10:04;;;;;;;16.33;4.00;;;6.60;99.90;;;;;;4991918;28;20438;-71
2024/02/02 03:12:31;;;;;;;5.37;3.80;;;6.60;99.90;;;;;;5011166;28;20468;-71
2024/02/02 03:15:00;;;;;;;12.33;4.30;;;6.60;99.90;;;;;;5012759;28;20468;-71
2024/02/02 03:17:27;;;;;;;2.93;2.53;;;6.60;99.90;;;;;;5010599;28;20496;-71
2024/02/02 03:19:56;;;;;;;3.10;2.80;;;6.60;99.90;;;;;;5016188;28;20483;-71
2024/02/02 03:22:26;;;;;;;2.00;1.90;;;6.60;99.90;;;;;;5009663;28;20423;-71
2024/02/02 03:24:53;;;;;;;1.90;1.80;;;6.60;99.90;;;;;;5012006;28;20471;-71
2024/02/02 03:27:21;;;;;;;4.30;2.90;;;6.60;99.90;;;;;;5005857;28;20472;-71
2024/02/02 03:29:48;;;;;;;12.73;2.73;;;6.60;99.90;;;;;;5009099;28;20810;-71
2024/02/02 03:32:16;;;;;;;2.67;2.27;;;6.60;99.90;;;;;;5009554;28;20474;-71
2024/02/02 03:34:43;;;;;;;3.43;3.13;;;6.50;99.90;;;;;;5018685;28;20980;-71
2024/02/02 03:37:10;;;;;;;4.07;2.47;;;6.40;99.90;;;;;;5017714;28;20443;-71
2024/02/02 03:39:37;;;;;;;3.70;2.30;;;6.40;99.90;;;;;;5019482;28;20494;-71
2024/02/02 03:42:04;;;;;;;3.13;2.83;;;6.50;99.90;;;;;;5017156;28;20435;-71
2024/02/02 03:44:32;;;;;;;5.63;2.53;;;6.50;99.90;;;;;;5021158;28;21040;-71
2024/02/02 03:46:58;;;;;;;7.33;4.13;;;6.50;99.90;;;;;;5008954;28;20459;-71
2024/02/02 03:49:27;;;;;;;7.23;2.77;;;6.60;99.90;;;;;;5009798;28;25235;-71
2024/02/02 03:51:53;;;;;;;5.07;2.30;;;6.70;99.90;;;;;;5016534;28;21116;-71
2024/02/02 03:54:20;;;;;;;7.53;2.83;;;6.70;99.90;;;;;;5021661;28;20464;-71
2024/02/02 03:56:47;;;;;;;5.97;2.53;;;6.80;99.90;;;;;;5015599;28;20457;-71
2024/02/02 03:59:14;;;;;;;16.30;3.60;;;6.80;99.90;;;;;;5021277;28;20945;-71
2024/02/02 04:01:41;;;;;;;3.20;1.93;;;6.70;99.90;;;;;;5017804;28;20443;-71
2024/02/02 04:04:07;;;;;;;2.60;2.40;;;6.60;99.90;;;;;;5015028;28;20590;-71
2024/02/02 04:06:35;;;;;;;10.47;3.03;;;6.60;99.90;;;;;;5011330;28;20477;-71
2024/02/02 04:09:02;;;;;;;6.73;2.90;;;6.70;99.90;;;;;;5017115;28;20460;-71
2024/02/02 04:11:30;;;;;;;5.43;2.20;;;6.80;99.90;;;;;;5005810;28;20443;-71
2024/02/02 04:13:56;;;;;;;9.63;2.80;;;6.80;99.90;;;;;;5015701;28;20439;-71
2024/02/02 04:16:23;;;;;;;4.20;2.73;;;6.80;99.90;;;;;;5010197;28;20475;-71
2024/02/02 04:18:50;;;;;;;10.80;2.93;;;6.80;99.90;;;;;;5017161;28;20561;-71
2024/02/02 04:21:17;;;;;;;8.13;2.50;;;6.70;99.90;;;;;;5011509;28;21174;-71
2024/02/02 04:23:45;;;;;;;4.30;2.63;;;6.70;99.90;;;;;;5012131;28;20484;-71
2024/02/02 04:26:12;;;;;;;4.57;3.53;;;6.60;99.90;;;;;;5012353;28;20499;-71
2024/02/02 04:28:39;;;;;;;9.00;4.03;;;6.60;99.90;;;;;;5016155;28;20472;-71
2024/02/02 04:31:06;;;;;;;9.37;4.37;;;6.60;99.90;;;;;;5017048;28;21598;-71
2024/02/02 04:33:33;;;;;;;4.27;2.83;;;6.60;99.90;;;;;;5012054;28;20937;-71
2024/02/02 04:35:59;;;;;;;7.93;2.93;;;6.60;99.90;;;;;;5010177;28;20480;-71
2024/02/02 04:38:26;;;;;;;8.50;4.00;;;6.60;99.90;;;;;;5012445;28;20508;-71
2024/02/02 04:40:54;;;;;;;20.00;4.63;;;6.60;99.90;;;;;;5014435;28;20468;-71
2024/02/02 04:43:21;;;;;;;7.33;4.60;;;6.60;99.90;;;;;;5019974;28;20458;-71
2024/02/02 04:45:48;;;;;;;20.73;3.10;;;6.60;99.90;;;;;;5021125;28;21000;-71
2024/02/02 04:48:15;;;;;;;5.73;2.57;;;6.60;99.90;;;;;;5019891;28;20471;-71
2024/02/02 04:50:42;;;;;;;19.53;5.93;;;6.60;99.90;;;;;;5021315;28;20538;-71
2024/02/02 04:53:09;;;;;;;9.47;4.93;;;6.50;99.90;;;;;;5017559;28;20447;-71
2024/02/02 04:55:36;;;;;;;9.70;3.63;;;6.50;99.90;;;;;;5021287;28;20511;-71
2024/02/02 04:58:04;;;;;;;3.67;3.33;;;6.60;99.90;;;;;;5021265;28;20470;-71
2024/02/02 05:00:31;;;;;;;12.50;3.80;;;6.60;99.90;;;;;;5016060;28;20487;-71
2024/02/02 05:02:58;;;;;;;3.20;2.77;;;6.60;99.90;;;;;;5012549;28;20545;-71
2024/02/02 05:05:25;;;;;;;6.23;4.07;;;6.50;99.90;;;;;;5018282;28;20496;-71
2024/02/02 05:07:52;;;;;;;7.97;5.90;;;6.50;99.90;;;;;;5012538;28;20980;-71
2024/02/02 05:10:18;;;;;;;7.40;3.57;;;6.60;99.90;;;;;;5017323;28;20468;-71
2024/02/02 05:12:45;;;;;;;5.83;2.63;;;6.60;99.90;;;;;;5012351;28;20519;-71
2024/02/02 05:15:14;;;;;;;12.37;4.47;;;6.50;99.90;;;;;;5004733;28;20865;-71
2024/02/02 05:17:41;;;;;;;11.40;3.73;;;6.50;99.90;;;;;;5013867;28;20488;-71
2024/02/02 05:20:08;;;;;;;10.93;3.70;;;6.60;99.90;;;;;;5014752;28;20877;-71
2024/02/02 05:22:35;;;;;;;3.63;2.90;;;6.70;99.90;;;;;;5017864;28;20785;-71
2024/02/02 05:25:01;;;;;;;5.60;2.40;;;6.60;99.90;;;;;;5011866;28;20492;-70
2024/02/02 05:27:28;;;;;;;2.83;2.30;;;6.60;99.90;;;;;;5014839;28;20439;-71
2024/02/02 05:29:55;;;;;;;4.90;3.53;;;6.50;99.90;;;;;;5020404;28;20778;-71
2024/02/02 05:32:24;;;;;;;3.00;2.23;;;6.50;99.90;;;;;;5016494;28;20517;-71
2024/02/02 05:34:51;;;;;;;9.93;3.93;;;6.50;99.90;;;;;;5013732;28;20990;-71
2024/02/02 05:37:18;;;;;;;16.27;4.43;;;6.60;99.90;;;;;;5017505;28;20445;-71
2024/02/02 05:39:45;;;;;;;3.40;2.73;;;6.60;99.90;;;;;;5013114;28;20439;-71
2024/02/02 05:42:13;;;;;;;4.20;2.00;;;6.60;99.90;;;;;;5013187;28;20530;-71
2024/02/02 05:44:40;;;;;;;4.40;2.17;;;6.50;99.90;;;;;;5013921;28;20484;-71
2024/02/02 05:47:07;;;;;;;4.40;1.83;;;6.40;99.90;;;;;;5014167;28;20446;-71
2024/02/02 05:49:35;;;;;;;5.30;3.50;;;6.50;99.90;;;;;;5012404;28;20475;-71
2024/02/02 05:52:02;;;;;;;4.13;2.17;;;6.50;99.90;;;;;;5020548;28;20460;-71
2024/02/02 05:54:29;;;;;;;11.50;2.27;;;6.50;99.90;;;;;;5017736;28;20454;-71
2024/02/02 05:56:55;;;;;;;4.23;2.87;;;6.50;99.90;;;;;;5010463;28;20970;-70
2024/02/02 05:59:23;;;;;;;3.57;2.33;;;6.50;99.90;;;;;;5012246;28;20557;-71
2024/02/02 06:01:50;;;;;;;5.10;2.40;;;6.50;99.90;;;;;;5013052;28;20797;-70
2024/02/02 06:04:16;;;;;;;2.70;1.70;;;6.50;99.90;;;;;;5013731;28;20488;-71
2024/02/02 06:06:45;;;;;;;1.73;1.63;;;6.50;99.90;;;;;;5023228;28;20480;-71
2024/02/02 06:09:11;;;;;;;2.03;1.70;;;6.50;99.90;;;;;;5012836;28;21090;-71
2024/02/02 06:11:38;;;;;;;9.87;2.90;;;6.40;99.90;;;;;;5009560;28;20492;-71
2024/02/02 06:14:04;;;;;;;10.90;2.10;;;6.40;99.90;;;;;;5009770;28;20548;-70
2024/02/02 06:16:32;;;;;;;3.30;1.70;;;6.40;99.90;;;;;;5008148;28;20546;-70
2024/02/02 06:18:59;;;;;;;12.13;2.67;;;6.40;99.90;;;;;;5011970;28;20439;-70
2024/02/02 06:21:25;;;;;;;5.40;3.17;;;6.40;99.90;;;;;;5010374;28;20431;-70
2024/02/02 06:23:54;;;;;;;7.30;3.07;;;6.40;99.90;;;;;;5015034;28;21029;-70
2024/02/02 06:26:21;;;;;;;5.53;2.63;;;6.40;99.90;;;;;;5016594;28;20457;-70
2024/02/02 06:28:47;;;;;;;6.90;3.20;;;6.50;99.90;;;;;;5010553;28;20567;-70
2024/02/02 06:31:14;;;;;;;3.40;1.73;;;6.50;99.90;;;;;;5019020;28;20438;-70
2024/02/02 06:33:41;;;;;;;3.67;2.00;;;6.60;99.90;;;;;;5015302;28;20442;-70
2024/02/02 06:36:08;;;;;;;25.47;4.50;;;6.60;99.90;;;;;;5017075;28;21005;-69
2024/02/02 06:38:35;;;;;;;1.40;1.17;;;6.60;99.90;;;;;;5020344;28;20586;-70
2024/02/02 06:41:05;;;;;;;6.33;2.60;;;6.60;99.90;;;;;;5017788;28;20453;-71
2024/02/02 06:43:32;;;;;;;6.83;3.97;;;6.70;99.90;;;;;;5009618;28;20443;-72
2024/02/02 06:45:59;;;;;;;6.40;2.50;;;6.80;99.90;;;;;;5020087;28;20469;-72
2024/02/02 06:48:26;;;;;;;1.07;0.93;;;6.90;99.90;;;;;;5020447;28;20475;-72
2024/02/02 06:50:53;;;;;;;3.17;1.97;;;6.90;99.90;;;;;;5025340;28;20439;-70
2024/02/02 06:53:20;;;;;;;6.40;1.57;;;6.80;99.90;;;;;;5020744;28;20459;-71
2024/02/02 06:55:48;;;;;;;4.07;3.30;;;6.80;99.90;;;;;;5010208;28;20564;-71
2024/02/02 06:58:39;;;;;;;6.93;1.90;;;6.80;99.90;;;;;;5014132;28;20443;-71
2024/02/02 07:01:07;;;;;;;21.23;2.30;;;6.80;99.90;;;;;;5014374;28;20549;-71
2024/02/02 07:03:35;;;;;;;1.17;1.07;;;6.80;99.90;;;;;;5017445;28;20921;-71
2024/02/02 07:06:10;;;;;;;3.10;2.33;;;6.80;99.90;;;;;;5015513;28;20830;-71
2024/02/02 07:08:36;;;;;;;2.43;2.23;;;6.80;99.90;;;;;;5014383;28;20522;-71
2024/02/02 07:11:19;;;;;;;4.60;2.57;;;6.80;99.90;;;;;;5012218;28;20459;-71
2024/02/02 07:13:51;;;;;;;6.17;2.03;;;6.80;99.90;;;;;;5020998;28;20456;-71
2024/02/02 07:16:27;;;;;;;4.87;1.40;;;6.70;99.90;;;;;;5013916;28;20588;-70
2024/02/02 07:18:55;;;;;;;2.33;1.50;;;6.70;99.90;;;;;;5017424;28;20430;-71
2024/02/02 07:21:29;;;;;;;1.67;0.90;;;6.80;99.90;;;;;;5021586;28;21020;-71
2024/02/02 07:23:56;;;;;;;3.23;2.23;;;6.80;99.90;;;;;;5019049;28;23252;-71
2024/02/02 07:26:28;;;;;;;1.77;1.30;;;6.80;99.90;;;;;;5019265;28;20480;-70
2024/02/02 07:28:56;;;;;;;10.63;3.30;;;6.80;99.90;;;;;;5023224;28;20430;-71
2024/02/02 07:31:39;;;;;;;1.63;1.53;;;6.70;99.90;;;;;;5021433;28;20475;-70
2024/02/02 07:34:30;;;;;;;10.80;2.13;;;6.60;99.90;;;;;;5006900;28;20502;-70
2024/02/02 07:36:57;;;;;;;6.23;2.77;;;6.60;99.90;;;;;;5020155;28;20469;-70
2024/02/02 07:39:27;;;;;;;5.67;2.97;;;6.60;99.90;;;;;;5014175;28;20456;-70
2024/02/02 07:41:57;;;;;;;4.93;3.13;;;6.60;99.90;;;;;;5018993;28;20518;-70
2024/02/02 07:44:26;;;;;;;3.40;2.00;;;6.60;99.90;;;;;;5020101;28;20482;-70
2024/02/02 07:46:53;;;;;;;2.80;1.40;;;6.60;99.90;;;;;;5016292;28;20538;-72
2024/02/02 07:49:20;;;;;;;7.73;1.63;;;6.50;99.90;;;;;;5018978;28;20456;-72
2024/02/02 07:51:47;;;;;;;2.60;2.40;;;6.60;99.90;;;;;;5024510;28;20460;-70
2024/02/02 07:54:14;;;;;;;7.73;1.87;;;6.60;99.90;;;;;;5017822;28;20471;-70
2024/02/02 07:56:41;;;;;;;8.63;1.40;;;6.70;99.90;;;;;;5014634;28;20484;-70
2024/02/02 12:31:03;;;;;;;3.97;3.00;;;11.70;99.90;;;;;;6191069;22;20412;-70
2024/02/02 12:33:30;;;;;;;9.70;3.77;;;12.00;99.90;;;;;;5011959;28;20557;-70
2024/02/02 12:41:09;;;;;;;3.40;2.40;;;13.20;99.90;;;;;;5434859;22;20671;-70
2024/02/02 12:43:35;;;;;;;7.30;3.57;;;13.60;99.90;;;;;;5042726;28;20467;-70
2024/02/02 19:11:25;;;;;;;27.53;13.70;;;9.30;99.90;;;;;;5188270;23;20584;-70
2024/02/02 19:13:51;;;;;;;33.40;16.03;;;9.30;99.90;;;;;;4997176;28;20545;-70
2024/02/02 19:16:19;;;;;;;19.07;11.67;;;9.30;99.90;;;;;;4977795;28;20489;-70
2024/02/02 19:18:46;;;;;;;23.40;12.33;;;9.30;99.90;;;;;;4973394;28;20473;-71
2024/02/02 19:21:20;;;;;;;26.10;13.60;;;9.30;99.90;;;;;;4974921;28;20466;-71
2024/02/02 19:23:46;;;;;;;21.07;13.43;;;9.30;99.90;;;;;;4969518;28;20963;-70
2024/02/02 19:26:13;;;;;;;22.00;15.07;;;9.40;99.90;;;;;;4972847;28;21011;-70
2024/02/02 19:28:42;;;;;;;16.93;10.17;;;9.40;99.90;;;;;;4973666;28;20567;-71
2024/02/02 19:31:09;;;;;;;24.70;13.53;;;9.50;99.90;;;;;;4978781;28;20478;-71
2024/02/02 19:33:36;;;;;;;23.37;11.90;;;9.40;99.90;;;;;;4973323;28;20474;-71
2024/02/02 19:36:03;;;;;;;27.97;14.60;;;9.50;99.90;;;;;;4974251;28;20501;-70
2024/02/02 19:38:32;;;;;;;17.43;9.07;;;9.40;99.90;;;;;;4974212;28;20574;-70
2024/02/02 19:40:59;;;;;;;34.23;14.30;;;9.40;99.90;;;;;;4977027;28;20982;-71
2024/02/02 19:43:26;;;;;;;27.30;13.67;;;9.50;99.90;;;;;;4965620;28;20490;-70
2024/02/02 19:45:54;;;;;;;22.70;13.90;;;9.60;99.90;;;;;;4976451;28;20460;-71
2024/02/02 19:48:21;;;;;;;26.10;13.63;;;9.50;99.90;;;;;;4977118;28;21245;-71
2024/02/02 19:50:49;;;;;;;19.50;8.40;;;9.50;99.90;;;;;;4974249;28;20452;-70
2024/02/02 19:53:16;;;;;;;8.20;6.60;;;9.50;99.90;;;;;;4973925;28;20466;-69
2024/02/02 19:55:43;;;;;;;22.00;12.50;;;9.50;99.90;;;;;;4971236;28;20605;-71
2024/02/02 19:58:13;;;;;;;14.63;6.77;;;9.60;99.90;;;;;;4974844;28;20462;-70
2024/02/02 20:00:40;;;;;;;21.20;11.40;;;9.50;99.90;;;;;;5327196;23;20489;-71
2024/02/02 20:03:08;;;;;;;26.77;11.50;;;9.50;99.90;;;;;;4971648;28;21069;-71
2024/02/02 20:05:35;;;;;;;20.67;13.10;;;9.40;99.90;;;;;;4968928;28;20504;-71
2024/02/02 20:08:02;;;;;;;22.07;12.13;;;9.40;99.90;;;;;;4969061;28;20890;-71
2024/02/02 20:10:29;;;;;;;17.93;9.83;;;9.40;99.90;;;;;;4958986;28;20463;-71
2024/02/02 20:12:56;;;;;;;17.87;8.60;;;9.50;99.90;;;;;;4970272;28;20950;-71
2024/02/02 20:15:23;;;;;;;20.10;8.73;;;9.50;99.90;;;;;;4967917;28;20553;-71
2024/02/02 20:17:49;;;;;;;17.70;9.40;;;9.50;99.90;;;;;;4974419;28;20796;-71
2024/02/02 20:20:18;;;;;;;20.43;8.97;;;9.50;99.90;;;;;;4971478;28;20476;-71
2024/02/02 20:22:44;;;;;;;26.83;11.37;;;9.50;99.90;;;;;;4962340;28;20519;-72
2024/02/02 20:25:11;;;;;;;12.70;8.20;;;9.40;99.90;;;;;;4978175;28;20920;-71
2024/02/02 20:27:38;;;;;;;17.37;10.97;;;9.40;99.90;;;;;;4973550;28;20511;-71
2024/02/02 20:30:06;;;;;;;20.83;10.53;;;9.30;99.90;;;;;;4968094;28;20485;-71
2024/02/02 20:32:32;;;;;;;18.43;10.77;;;9.30;99.90;;;;;;4971684;28;20543;-71
2024/02/02 20:34:59;;;;;;;24.60;11.83;;;9.20;99.90;;;;;;4970822;28;20925;-71
2024/02/02 20:37:31;;;;;;;24.37;9.83;;;9.30;99.90;;;;;;4972801;28;20471;-71
2024/02/02 20:39:58;;;;;;;10.73;8.60;;;9.40;99.90;;;;;;4969463;28;20506;-71
2024/02/02 20:42:24;;;;;;;19.10;11.10;;;9.30;99.90;;;;;;4973854;28;20473;-71
2024/02/02 20:44:52;;;;;;;16.10;8.37;;;9.30;99.90;;;;;;4970802;28;21007;-71
2024/02/02 20:47:19;;;;;;;26.97;15.33;;;9.30;99.90;;;;;;4970256;28;20494;-72
2024/02/02 20:49:46;;;;;;;23.27;9.70;;;9.30;99.90;;;;;;4964849;28;20490;-71
2024/02/02 20:52:16;;;;;;;31.77;13.40;;;9.40;99.90;;;;;;4974240;28;20504;-71
2024/02/02 20:54:44;;;;;;;28.30;15.67;;;9.30;99.90;;;;;;4980738;28;20580;-71
2024/02/02 20:57:11;;;;;;;41.07;17.83;;;9.30;99.90;;;;;;4974280;28;21241;-71
2024/02/02 20:59:38;;;;;;;21.40;11.13;;;9.30;99.90;;;;;;4973308;28;20471;-71
2024/02/02 21:02:05;;;;;;;19.57;11.67;;;9.30;99.90;;;;;;4971365;28;20912;-72
2024/02/02 21:04:32;;;;;;;34.13;14.90;;;9.20;99.90;;;;;;4972540;28;20566;-71
2024/02/02 21:06:59;;;;;;;24.07;9.57;;;9.20;99.90;;;;;;4971945;28;20594;-72
2024/02/02 21:09:26;;;;;;;28.70;15.13;;;9.20;99.90;;;;;;4970682;28;20554;-71
2024/02/02 21:11:55;;;;;;;21.00;11.10;;;9.20;99.90;;;;;;4956316;28;23311;-70
2024/02/02 21:14:22;;;;;;;16.37;9.60;;;9.30;99.90;;;;;;4969162;28;20605;-71
2024/02/02 21:16:49;;;;;;;21.27;11.63;;;9.30;99.90;;;;;;4965735;28;20561;-72
2024/02/02 21:19:16;;;;;;;25.50;13.77;;;9.30;99.90;;;;;;4969236;28;20569;-72
2024/02/02 21:21:43;;;;;;;28.50;14.07;;;9.30;99.90;;;;;;4968675;28;20542;-72
2024/02/02 21:24:10;;;;;;;30.10;13.17;;;9.30;99.90;;;;;;4968431;28;20470;-71
2024/02/02 21:26:37;;;;;;;15.67;9.83;;;9.30;99.90;;;;;;4971866;28;20500;-72
2024/02/02 21:29:05;;;;;;;21.03;13.00;;;9.30;99.90;;;;;;4971210;28;20462;-71
2024/02/02 21:31:32;;;;;;;16.77;11.27;;;9.30;99.90;;;;;;4967642;28;20481;-71
2024/02/02 21:33:59;;;;;;;21.87;8.77;;;9.30;99.90;;;;;;4977021;28;20491;-71
2024/02/02 21:36:29;;;;;;;22.93;12.90;;;9.30;99.90;;;;;;4969443;28;20569;-71
2024/02/02 21:38:57;;;;;;;29.00;15.30;;;9.30;99.90;;;;;;4969705;28;20545;-71
2024/02/02 21:41:24;;;;;;;30.70;15.73;;;9.30;99.90;;;;;;4969520;28;20936;-71
2024/02/02 21:43:51;;;;;;;15.73;8.90;;;9.30;99.90;;;;;;4967648;28;20531;-71
2024/02/02 21:46:22;;;;;;;23.27;11.03;;;9.20;99.90;;;;;;4969534;28;21138;-72
2024/02/02 21:48:49;;;;;;;41.20;16.03;;;9.30;99.90;;;;;;4959412;28;20433;-72
2024/02/02 21:51:16;;;;;;;33.43;14.03;;;9.30;99.90;;;;;;4968725;28;20944;-72
2024/02/02 21:53:46;;;;;;;19.67;10.57;;;9.30;99.90;;;;;;4965697;28;21041;-71
2024/02/02 21:56:13;;;;;;;12.90;9.83;;;9.20;99.90;;;;;;4968727;28;20920;-72
2024/02/02 21:58:39;;;;;;;36.73;11.87;;;9.20;99.90;;;;;;4971117;28;20487;-72
2024/02/02 22:01:06;;;;;;;15.67;10.87;;;9.30;99.90;;;;;;4972138;28;20474;-72
2024/02/02 22:03:34;;;;;;;20.87;14.33;;;9.30;99.90;;;;;;4966466;28;20581;-72
2024/02/02 22:06:05;;;;;;;29.20;13.87;;;9.20;99.90;;;;;;4966422;28;20808;-72
2024/02/02 22:08:32;;;;;;;30.47;16.37;;;9.30;99.90;;;;;;4968285;28;20550;-72
2024/02/02 22:10:59;;;;;;;20.80;9.97;;;9.30;99.90;;;;;;4968172;28;20633;-72
2024/02/02 22:13:26;;;;;;;13.73;11.00;;;9.20;99.90;;;;;;4966818;28;20467;-72
2024/02/02 22:15:54;;;;;;;25.20;14.87;;;9.20;99.90;;;;;;4962823;28;20518;-72
2024/02/02 22:18:21;;;;;;;28.53;16.57;;;9.30;99.90;;;;;;4971017;28;20467;-72
2024/02/02 22:20:49;;;;;;;27.57;12.87;;;9.30;99.90;;;;;;4965890;28;21251;-72
2024/02/02 22:23:16;;;;;;;20.50;11.70;;;9.30;99.90;;;;;;4968123;28;20620;-72
2024/02/02 22:25:42;;;;;;;22.57;11.47;;;9.30;99.90;;;;;;4964192;28;20490;-71
2024/02/02 22:28:09;;;;;;;26.30;13.90;;;9.30;99.90;;;;;;4961381;28;20561;-72
2024/02/02 22:30:39;;;;;;;26.50;13.17;;;9.30;99.90;;;;;;4971131;28;20633;-72
2024/02/02 22:33:06;;;;;;;19.67;10.40;;;9.30;99.90;;;;;;4968506;28;20521;-72
2024/02/02 22:35:33;;;;;;;32.33;15.33;;;9.30;99.90;;;;;;4969252;28;20517;-72
2024/02/02 22:38:01;;;;;;;20.07;12.30;;;9.30;99.90;;;;;;4963645;28;20467;-72
2024/02/02 22:40:28;;;;;;;21.20;13.03;;;9.40;99.90;;;;;;4967811;28;20485;-72
2024/02/02 22:42:55;;;;;;;28.80;14.27;;;9.40;99.90;;;;;;4970561;28;20467;-72
2024/02/02 22:45:22;;;;;;;19.10;9.33;;;9.40;99.90;;;;;;4966384;28;20505;-72
2024/02/02 22:47:48;;;;;;;31.67;16.40;;;9.50;99.90;;;;;;4966656;28;20497;-72
2024/02/02 22:50:15;;;;;;;30.13;14.37;;;9.50;99.90;;;;;;4969086;28;20480;-70
2024/02/02 22:52:43;;;;;;;24.53;14.47;;;9.50;99.90;;;;;;4970176;28;20901;-70
2024/02/02 22:55:11;;;;;;;26.00;13.80;;;9.60;99.90;;;;;;4970260;28;20540;-70
2024/02/02 22:57:38;;;;;;;19.50;10.00;;;9.60;99.90;;;;;;4971149;28;20482;-71
2024/02/02 23:00:09;;;;;;;19.77;10.17;;;9.60;99.90;;;;;;4967564;28;20645;-71
2024/02/02 23:02:36;;;;;;;35.20;18.10;;;9.60;99.90;;;;;;4971079;28;20529;-71
2024/02/02 23:05:04;;;;;;;29.50;15.03;;;9.60;99.90;;;;;;4970774;28;20596;-71
2024/02/02 23:07:31;;;;;;;19.60;12.17;;;9.60;99.90;;;;;;4966771;28;20486;-71
2024/02/02 23:09:57;;;;;;;31.47;14.93;;;9.70;99.90;;;;;;4967504;28;20462;-71
2024/02/02 23:12:25;;;;;;;22.43;13.60;;;9.70;99.90;;;;;;4970891;28;20569;-71
2024/02/02 23:14:52;;;;;;;28.97;14.87;;;9.70;99.90;;;;;;4970266;28;20467;-71
2024/02/02 23:17:19;;;;;;;12.33;7.30;;;9.70;99.90;;;;;;4958023;28;20437;-71
2024/02/02 23:19:46;;;;;;;23.73;13.87;;;9.80;99.90;;;;;;4963533;28;20458;-71
2024/02/02 23:22:13;;;;;;;47.40;15.17;;;9.80;99.90;;;;;;4965784;28;20951;-70
2024/02/02 23:24:40;;;;;;;24.90;12.47;;;9.70;99.90;;;;;;4968523;28;20470;-71
2024/02/02 23:27:07;;;;;;;25.00;13.70;;;9.70;99.90;;;;;;4963687;28;20490;-70
2024/02/02 23:29:35;;;;;;;34.60;16.10;;;9.80;99.90;;;;;;4971981;28;20549;-70
2024/02/02 23:32:03;;;;;;;25.70;17.20;;;9.70;99.90;;;;;;4971254;28;20576;-70
2024/02/02 23:34:30;;;;;;;24.10;10.97;;;9.80;99.90;;;;;;4965398;28;20462;-71
2024/02/02 23:36:56;;;;;;;20.37;10.63;;;9.80;99.90;;;;;;4968957;28;20641;-71
2024/02/02 23:39:23;;;;;;;21.80;10.87;;;9.80;99.90;;;;;;4970845;28;20482;-72
2024/02/02 23:41:50;;;;;;;23.40;11.47;;;9.70;99.90;;;;;;4967600;28;20593;-70
2024/02/02 23:44:17;;;;;;;33.10;16.10;;;9.80;99.90;;;;;;4966625;28;20459;-71
2024/02/02 23:46:45;;;;;;;18.93;9.23;;;9.80;99.90;;;;;;4966854;28;20522;-72
2024/02/02 23:49:12;;;;;;;25.37;15.70;;;9.80;99.90;;;;;;4966036;28;20473;-72
2024/02/02 23:51:39;;;;;;;25.53;14.57;;;9.80;99.90;;;;;;4971077;28;20550;-70
2024/02/02 23:54:06;;;;;;;27.53;14.03;;;9.90;99.90;;;;;;4970699;28;20484;-73
2024/02/02 23:56:33;;;;;;;16.97;10.73;;;9.80;99.90;;;;;;4967618;28;20479;-70
2024/02/02 23:59:02;;;;;;;15.37;9.37;;;9.70;99.90;;;;;;4974554;28;21058;-71
